createdAt,value
2022-12-31T00:01:06.724Z,96809.56
2022-12-31T00:03:33.888Z,96810.31
2022-12-31T00:06:00.461Z,96820.31
2022-12-31T00:08:26.934Z,96828.22
2022-12-31T00:10:53.445Z,96828.53
2022-12-31T00:13:20.053Z,96820.81
2022-12-31T00:15:46.692Z,96832.00
2022-12-31T00:18:13.192Z,96833.16
2022-12-31T00:20:41.860Z,96842.56
2022-12-31T00:23:10.192Z,96838.97
2022-12-31T00:25:36.721Z,96841.88
2022-12-31T00:28:05.005Z,96842.38
2022-12-31T00:30:31.778Z,96856.56
2022-12-31T00:32:58.312Z,96862.09
2022-12-31T00:35:24.991Z,96867.59
2022-12-31T00:37:53.228Z,96868.59
2022-12-31T00:40:19.758Z,96871.38
2022-12-31T00:42:46.301Z,96883.47
2022-12-31T00:45:12.692Z,96889.38
2022-12-31T00:47:39.216Z,96879.94
2022-12-31T00:50:06.225Z,96880.25
2022-12-31T00:52:32.658Z,96877.38
2022-12-31T00:54:59.238Z,96876.00
2022-12-31T00:57:25.627Z,96880.47
2022-12-31T00:59:52.259Z,96885.56
2022-12-31T01:02:18.778Z,96897.91
2022-12-31T01:04:45.370Z,96905.59
2022-12-31T01:07:11.874Z,96900.63
2022-12-31T01:09:38.291Z,96910.66
2022-12-31T01:12:07.146Z,96909.50
2022-12-31T01:14:33.914Z,96913.34
2022-12-31T01:17:00.385Z,96912.09
2022-12-31T01:19:29.273Z,96924.28
2022-12-31T01:21:56.302Z,96927.56
2022-12-31T01:24:22.832Z,96926.97
2022-12-31T01:26:49.438Z,96934.28
2022-12-31T01:29:17.002Z,96935.03
2022-12-31T01:31:43.620Z,96949.81
2022-12-31T01:34:10.121Z,96959.03
2022-12-31T01:36:38.024Z,96949.09
2022-12-31T01:39:06.430Z,96955.31
2022-12-31T01:41:39.037Z,96966.31
2022-12-31T01:44:11.227Z,96965.75
2022-12-31T01:46:42.477Z,96964.19
2022-12-31T01:49:29.882Z,96971.41
2022-12-31T01:52:06.986Z,96960.66
2022-12-31T01:54:38.100Z,96962.41
2022-12-31T01:57:05.321Z,96959.63
2022-12-31T01:59:33.098Z,96960.41
2022-12-31T02:02:00.090Z,96961.41
2022-12-31T02:04:28.166Z,96958.41
2022-12-31T02:07:00.334Z,96961.97
2022-12-31T02:09:26.892Z,96953.25
2022-12-31T02:11:53.557Z,96959.50
2022-12-31T02:14:28.412Z,96970.28
2022-12-31T02:17:07.443Z,96969.25
2022-12-31T02:19:54.679Z,96969.75
2022-12-31T02:22:45.971Z,96974.94
2022-12-31T02:25:39.601Z,96971.56
2022-12-31T02:28:21.575Z,96972.16
2022-12-31T02:30:52.605Z,96971.81
2022-12-31T02:33:32.896Z,96969.47
2022-12-31T02:36:20.478Z,96964.44
2022-12-31T02:38:49.358Z,96970.97
2022-12-31T02:41:36.886Z,96977.41
2022-12-31T02:44:24.364Z,96976.28
2022-12-31T02:47:08.841Z,96965.28
2022-12-31T02:49:53.739Z,96979.16
2022-12-31T02:52:38.908Z,96984.94
2022-12-31T02:55:44.379Z,96992.88
2022-12-31T02:59:06.478Z,96985.53
2022-12-31T03:01:56.094Z,96988.59
2022-12-31T03:04:34.037Z,96997.47
2022-12-31T03:07:06.760Z,96997.63
2022-12-31T03:09:34.644Z,96986.88
2022-12-31T03:12:20.764Z,96984.44
2022-12-31T03:14:47.361Z,96989.94
2022-12-31T03:17:13.842Z,96989.44
2022-12-31T03:19:58.925Z,96970.91
2022-12-31T03:22:28.184Z,96975.69
2022-12-31T03:25:18.307Z,96983.66
2022-12-31T03:27:46.539Z,96978.31
2022-12-31T03:30:14.877Z,96986.31
2022-12-31T03:32:42.190Z,96986.31
2022-12-31T03:35:09.931Z,96990.03
2022-12-31T03:37:36.428Z,96987.91
2022-12-31T03:40:02.903Z,96989.50
2022-12-31T03:42:29.489Z,97000.13
2022-12-31T03:44:56.077Z,96991.09
2022-12-31T03:47:22.559Z,96983.69
2022-12-31T03:49:49.012Z,96988.41
2022-12-31T03:52:15.438Z,96996.44
2022-12-31T03:54:41.863Z,96998.25
2022-12-31T03:57:08.488Z,97003.31
2022-12-31T03:59:35.083Z,96998.53
2022-12-31T04:02:01.751Z,97008.09
2022-12-31T04:04:28.371Z,97001.19
2022-12-31T04:06:54.830Z,97006.00
2022-12-31T04:09:21.380Z,97007.06
2022-12-31T04:11:47.907Z,97009.94
2022-12-31T04:14:14.729Z,97017.94
2022-12-31T04:16:41.353Z,97025.63
2022-12-31T04:19:07.820Z,97017.16
2022-12-31T04:21:35.289Z,97013.38
2022-12-31T04:24:02.660Z,97012.91
2022-12-31T04:26:30.200Z,97025.63
2022-12-31T04:28:56.692Z,97028.84
2022-12-31T04:31:23.235Z,97026.97
2022-12-31T04:33:49.727Z,97023.00
2022-12-31T04:36:16.400Z,97025.09
2022-12-31T04:38:42.829Z,97046.28
2022-12-31T04:41:19.197Z,97037.81
2022-12-31T04:43:51.111Z,97032.03
2022-12-31T04:46:19.849Z,97033.59
2022-12-31T04:48:46.690Z,97029.34
2022-12-31T04:51:13.652Z,97037.56
2022-12-31T04:53:40.600Z,97039.91
2022-12-31T04:56:07.323Z,97051.66
2022-12-31T04:58:34.744Z,97054.25
2022-12-31T05:01:01.400Z,97059.56
2022-12-31T05:03:28.412Z,97068.09
2022-12-31T05:06:01.149Z,97061.16
2022-12-31T05:08:27.681Z,97057.09
2022-12-31T05:10:54.200Z,97055.88
2022-12-31T05:13:20.853Z,97055.22
2022-12-31T05:15:47.625Z,97059.38
2022-12-31T05:18:14.213Z,97059.97
2022-12-31T05:20:40.965Z,97062.59
2022-12-31T05:23:07.852Z,97073.84
2022-12-31T05:25:34.931Z,97070.56
2022-12-31T05:28:01.615Z,97064.66
2022-12-31T05:30:28.122Z,97057.09
2022-12-31T05:32:54.879Z,97066.72
2022-12-31T05:35:21.406Z,97065.44
2022-12-31T05:37:47.937Z,97057.66
2022-12-31T05:40:14.408Z,97067.69
2022-12-31T05:42:40.798Z,97060.97
2022-12-31T05:45:07.899Z,97060.31
2022-12-31T05:47:34.342Z,97059.00
2022-12-31T05:50:00.841Z,97060.03
2022-12-31T05:52:27.293Z,97060.97
2022-12-31T05:54:53.815Z,97050.22
2022-12-31T05:57:20.232Z,97046.09
2022-12-31T05:59:46.694Z,97049.16
2022-12-31T06:02:13.222Z,97051.25
2022-12-31T06:04:39.912Z,97048.69
2022-12-31T06:07:06.598Z,97051.44
2022-12-31T06:09:33.033Z,97069.88
2022-12-31T06:11:59.433Z,97070.53
2022-12-31T06:14:26.003Z,97082.34
2022-12-31T06:16:52.387Z,97070.00
2022-12-31T06:19:18.857Z,97083.69
2022-12-31T06:21:45.382Z,97086.09
2022-12-31T06:24:12.394Z,97091.84
2022-12-31T06:26:38.962Z,97084.31
2022-12-31T06:29:05.406Z,97089.47
2022-12-31T06:31:32.263Z,97094.31
2022-12-31T06:33:59.069Z,97102.50
2022-12-31T06:36:27.047Z,97108.34
2022-12-31T06:38:53.870Z,97105.34
2022-12-31T06:41:20.655Z,97103.78
2022-12-31T06:43:47.499Z,97104.53
2022-12-31T06:46:16.998Z,97099.94
2022-12-31T06:48:44.928Z,97094.28
2022-12-31T06:51:19.757Z,97102.91
2022-12-31T06:53:48.106Z,97093.75
2022-12-31T06:56:19.361Z,97078.94
2022-12-31T06:58:46.318Z,97069.13
2022-12-31T07:01:44.456Z,97073.03
2022-12-31T07:04:34.984Z,97079.47
2022-12-31T07:07:27.033Z,97086.66
2022-12-31T07:10:30.929Z,97089.09
2022-12-31T07:13:30.114Z,97100.38
2022-12-31T07:16:11.174Z,97106.56
2022-12-31T07:18:50.296Z,97100.50
2022-12-31T07:21:23.979Z,97104.75
2022-12-31T07:23:50.672Z,97103.78
2022-12-31T07:27:11.280Z,97104.56
2022-12-31T07:30:00.959Z,97103.78
2022-12-31T07:32:36.966Z,97104.31
2022-12-31T07:35:35.301Z,97117.34
2022-12-31T07:38:32.732Z,97114.69
2022-12-31T07:41:10.054Z,97125.06
2022-12-31T07:44:07.721Z,97135.06
2022-12-31T07:46:40.110Z,97138.09
2022-12-31T07:49:12.209Z,97144.50
2022-12-31T07:51:39.460Z,97147.28
2022-12-31T07:54:11.814Z,97153.09
2022-12-31T07:56:40.591Z,97151.53
2022-12-31T07:59:29.528Z,97156.50
2022-12-31T08:02:14.850Z,97158.47
2022-12-31T08:04:49.576Z,97162.81
2022-12-31T08:07:22.332Z,97158.28
2022-12-31T08:10:03.531Z,97156.66
2022-12-31T08:12:34.937Z,97165.97
2022-12-31T08:15:02.015Z,97176.31
2022-12-31T08:17:28.644Z,97176.56
2022-12-31T08:19:55.295Z,97178.31
2022-12-31T08:22:40.281Z,97176.59
2022-12-31T08:25:52.424Z,97172.66
2022-12-31T08:28:52.668Z,97168.84
2022-12-31T08:31:23.452Z,97163.03
2022-12-31T08:34:17.747Z,97163.59
2022-12-31T08:37:08.645Z,97164.59
2022-12-31T08:40:13.069Z,97166.13
2022-12-31T08:43:04.367Z,97157.22
2022-12-31T08:46:00.711Z,97163.78
2022-12-31T08:48:38.599Z,97163.03
2022-12-31T08:51:05.812Z,97175.25
2022-12-31T08:53:32.612Z,97169.00
2022-12-31T08:56:07.974Z,97181.13
2022-12-31T08:59:03.977Z,97186.06
2022-12-31T09:01:46.291Z,97179.81
2022-12-31T09:04:30.074Z,97192.00
2022-12-31T09:07:01.078Z,97191.00
2022-12-31T09:09:40.778Z,97198.97
2022-12-31T09:12:28.538Z,97197.88
2022-12-31T09:14:59.388Z,97193.66
2022-12-31T09:17:44.368Z,97190.19
2022-12-31T09:20:41.795Z,97197.06
2022-12-31T09:23:10.233Z,97200.97
2022-12-31T09:25:46.325Z,97208.38
2022-12-31T09:28:36.717Z,97194.72
2022-12-31T09:31:11.306Z,97198.50
2022-12-31T09:33:58.595Z,97190.00
2022-12-31T09:36:38.969Z,97193.19
2022-12-31T09:39:22.580Z,97190.19
2022-12-31T09:41:55.119Z,97201.38
2022-12-31T09:44:30.573Z,97201.28
2022-12-31T09:47:27.964Z,97197.28
2022-12-31T09:50:25.327Z,97206.13
2022-12-31T09:53:21.605Z,97204.66
2022-12-31T09:56:12.383Z,97211.31
2022-12-31T09:58:57.402Z,97203.16
2022-12-31T10:01:37.425Z,97196.78
2022-12-31T10:04:15.569Z,97206.94
2022-12-31T10:07:06.059Z,97203.84
2022-12-31T10:10:07.647Z,97201.50
2022-12-31T10:12:52.834Z,97195.22
2022-12-31T10:15:43.564Z,97205.09
2022-12-31T10:18:37.956Z,97206.84
2022-12-31T10:21:32.580Z,97200.66
2022-12-31T10:24:04.401Z,97199.94
2022-12-31T10:27:09.415Z,97198.25
2022-12-31T10:29:47.254Z,97192.88
2022-12-31T10:32:18.781Z,97191.16
2022-12-31T10:34:56.309Z,97192.22
2022-12-31T10:37:43.400Z,97186.50
2022-12-31T10:40:20.355Z,97184.47
2022-12-31T10:43:27.606Z,97168.31
2022-12-31T10:46:16.231Z,97168.19
2022-12-31T10:48:54.334Z,97174.19
2022-12-31T10:51:45.378Z,97187.94
2022-12-31T10:55:03.249Z,97182.84
2022-12-31T10:57:39.727Z,97191.59
2022-12-31T11:00:15.292Z,97180.94
2022-12-31T11:03:23.517Z,97181.72
2022-12-31T11:06:22.777Z,97178.88
2022-12-31T11:09:18.613Z,97170.56
2022-12-31T11:12:00.092Z,97171.94
2022-12-31T11:14:45.292Z,97167.59
2022-12-31T11:17:31.198Z,97163.63
2022-12-31T11:20:01.946Z,97153.63
2022-12-31T11:22:39.793Z,97167.47
2022-12-31T11:25:12.753Z,97155.44
2022-12-31T11:27:57.315Z,97145.03
2022-12-31T11:30:41.722Z,97145.03
2022-12-31T11:33:35.272Z,97136.81
2022-12-31T11:36:22.853Z,97135.88
2022-12-31T11:39:01.890Z,97132.19
2022-12-31T11:41:39.689Z,97127.56
2022-12-31T11:44:23.853Z,97126.09
2022-12-31T11:47:12.308Z,97113.50
2022-12-31T11:49:53.765Z,97113.50
2022-12-31T11:52:33.280Z,97110.53
2022-12-31T11:55:18.074Z,97111.75
2022-12-31T11:57:50.560Z,97109.75
2022-12-31T12:00:22.124Z,97103.41
2022-12-31T12:02:54.820Z,97098.56
2022-12-31T12:05:26.062Z,97094.28
2022-12-31T12:07:53.655Z,97086.31
2022-12-31T12:10:35.674Z,97091.88
2022-12-31T12:13:21.281Z,97084.94
2022-12-31T12:15:51.305Z,97087.28
2022-12-31T12:18:43.943Z,97083.53
2022-12-31T12:21:25.164Z,97081.84
2022-12-31T12:23:58.531Z,97088.50
2022-12-31T12:26:29.789Z,97094.88
2022-12-31T12:29:00.254Z,97096.44
2022-12-31T12:31:27.507Z,97090.56
2022-12-31T12:33:54.066Z,97094.31
2022-12-31T12:36:21.745Z,97087.03
2022-12-31T12:38:48.294Z,97093.31
2022-12-31T12:41:25.373Z,97087.75
2022-12-31T12:44:14.284Z,97090.31
2022-12-31T12:46:48.402Z,97083.16
2022-12-31T12:49:29.314Z,97081.03
2022-12-31T12:52:01.737Z,97076.56
2022-12-31T12:54:47.022Z,97077.16
2022-12-31T12:57:24.389Z,97081.16
2022-12-31T13:00:13.002Z,97081.75
2022-12-31T13:03:11.740Z,97075.38
2022-12-31T13:06:10.044Z,97082.09
2022-12-31T13:08:56.909Z,97081.72
2022-12-31T13:11:41.812Z,97083.50
2022-12-31T13:14:39.469Z,97071.84
2022-12-31T13:17:34.937Z,97068.56
2022-12-31T13:20:24.443Z,97063.56
2022-12-31T13:23:15.411Z,97051.44
2022-12-31T13:26:17.033Z,97062.88
2022-12-31T13:28:47.075Z,97054.22
2022-12-31T13:31:17.374Z,97056.16
2022-12-31T13:33:53.730Z,97046.94
2022-12-31T13:36:23.619Z,97039.75
2022-12-31T13:38:56.557Z,97037.41
2022-12-31T13:41:28.967Z,97034.13
2022-12-31T13:44:06.772Z,97035.06
2022-12-31T13:46:56.119Z,97038.03
2022-12-31T13:49:32.572Z,97034.06
2022-12-31T13:52:07.072Z,97031.56
2022-12-31T13:54:52.718Z,97033.25
2022-12-31T13:57:26.950Z,97040.06
2022-12-31T13:59:59.284Z,97038.22
2022-12-31T14:02:29.085Z,97044.16
2022-12-31T14:05:16.671Z,97043.53
2022-12-31T14:07:49.855Z,97042.59
2022-12-31T14:10:19.364Z,97056.06
2022-12-31T14:13:05.554Z,97051.69
2022-12-31T14:15:36.969Z,97041.94
2022-12-31T14:18:11.560Z,97053.38
2022-12-31T14:21:03.671Z,97055.59
2022-12-31T14:23:42.226Z,97057.88
2022-12-31T14:26:41.793Z,97056.84
2022-12-31T14:29:11.266Z,97063.63
2022-12-31T14:31:50.083Z,97049.94
2022-12-31T14:34:28.687Z,97064.09
2022-12-31T14:37:13.756Z,97058.91
2022-12-31T14:40:00.802Z,97073.34
2022-12-31T14:42:40.371Z,97065.50
2022-12-31T14:45:22.119Z,97061.22
2022-12-31T14:48:49.926Z,97070.22
2022-12-31T14:51:16.805Z,97065.88
2022-12-31T14:53:52.737Z,97061.97
2022-12-31T14:56:33.318Z,97069.13
2022-12-31T14:59:02.333Z,97066.91
2022-12-31T15:01:29.320Z,97065.25
2022-12-31T15:03:58.049Z,97071.16
2022-12-31T15:06:24.556Z,97065.41
2022-12-31T15:09:19.633Z,97073.72
2022-12-31T15:12:06.345Z,97081.09
2022-12-31T15:14:45.104Z,97078.81
2022-12-31T15:17:17.135Z,97079.78
2022-12-31T15:19:46.408Z,97084.56
2022-12-31T15:22:28.299Z,97081.81
2022-12-31T15:24:55.292Z,97087.53
2022-12-31T15:27:30.807Z,97082.94
2022-12-31T15:29:57.465Z,97080.28
2022-12-31T15:32:35.700Z,97078.69
2022-12-31T15:35:20.788Z,97076.56
2022-12-31T15:38:02.351Z,97082.94
2022-12-31T15:40:29.678Z,97082.59
2022-12-31T15:43:12.836Z,97083.97
2022-12-31T15:45:42.067Z,97074.34
2022-12-31T15:48:17.446Z,97082.88
2022-12-31T15:50:44.787Z,97078.00
2022-12-31T15:53:27.541Z,97090.63
2022-12-31T15:55:56.338Z,97085.63
2022-12-31T15:58:25.679Z,97088.81
2022-12-31T16:00:57.260Z,97089.31
2022-12-31T16:03:27.215Z,97087.19
2022-12-31T16:06:00.037Z,97097.91
2022-12-31T16:08:31.501Z,97095.50
2022-12-31T16:10:59.246Z,97098.94
2022-12-31T16:13:27.772Z,97088.25
2022-12-31T16:16:04.917Z,97098.13
2022-12-31T16:18:43.294Z,97099.72
2022-12-31T16:21:32.649Z,97106.38
2022-12-31T16:24:02.972Z,97106.91
2022-12-31T16:26:49.949Z,97102.13
2022-12-31T16:29:18.686Z,97106.41
2022-12-31T16:31:46.639Z,97110.16
2022-12-31T16:34:39.414Z,97110.69
2022-12-31T16:37:13.723Z,97118.66
2022-12-31T16:40:00.003Z,97112.28
2022-12-31T16:42:28.324Z,97118.69
2022-12-31T16:44:57.007Z,97117.09
2022-12-31T16:47:28.289Z,97109.63
2022-12-31T16:50:04.078Z,97108.56
2022-12-31T16:52:43.377Z,97111.22
2022-12-31T16:55:15.473Z,97114.97
2022-12-31T16:57:45.890Z,97113.88
2022-12-31T17:00:18.073Z,97113.34
2022-12-31T17:03:10.373Z,97112.28
2022-12-31T17:06:16.424Z,97115.50
2022-12-31T17:09:02.399Z,97118.94
2022-12-31T17:11:35.462Z,97120.53
2022-12-31T17:14:13.843Z,97122.81
2022-12-31T17:17:02.689Z,97120.69
2022-12-31T17:19:38.820Z,97122.56
2022-12-31T17:22:11.596Z,97115.41
2022-12-31T17:24:39.055Z,97123.53
2022-12-31T17:27:07.207Z,97114.25
2022-12-31T17:29:34.431Z,97118.53
2022-12-31T17:32:08.409Z,97123.25
2022-12-31T17:34:40.039Z,97123.88
2022-12-31T17:37:13.016Z,97124.66
2022-12-31T17:39:49.476Z,97125.91
2022-12-31T17:42:25.445Z,97133.47
2022-12-31T17:44:55.969Z,97135.81
2022-12-31T17:47:22.615Z,97141.38
2022-12-31T17:49:49.211Z,97148.91
2022-12-31T17:52:16.076Z,97146.78
2022-12-31T17:54:43.135Z,97155.88
2022-12-31T17:57:23.625Z,97148.72
2022-12-31T17:59:50.180Z,97142.69
2022-12-31T18:02:16.734Z,97147.47
2022-12-31T18:04:43.358Z,97139.13
2022-12-31T18:07:09.787Z,97150.75
2022-12-31T18:09:36.201Z,97146.97
2022-12-31T18:12:05.757Z,97140.78
2022-12-31T18:14:32.216Z,97149.66
2022-12-31T18:16:58.713Z,97153.00
2022-12-31T18:19:54.256Z,97153.09
2022-12-31T18:22:16.173Z,97152.41
2022-12-31T18:24:43.561Z,97151.66
2022-12-31T18:27:17.892Z,97153.38
2022-12-31T18:29:44.912Z,97159.13
2022-12-31T18:32:21.175Z,97151.47
2022-12-31T18:34:47.905Z,97155.28
2022-12-31T18:37:21.322Z,97154.25
2022-12-31T18:39:48.405Z,97161.16
2022-12-31T18:42:17.324Z,97158.75
2022-12-31T18:44:45.092Z,97164.88
2022-12-31T18:47:15.937Z,97156.69
2022-12-31T18:49:42.988Z,97169.72
2022-12-31T18:52:13.773Z,97165.84
2022-12-31T18:54:40.334Z,97160.56
2022-12-31T18:57:06.957Z,97159.75
2022-12-31T18:59:33.409Z,97159.25
2022-12-31T19:02:00.002Z,97171.22
2022-12-31T19:04:28.304Z,97164.81
2022-12-31T19:06:55.953Z,97164.81
2022-12-31T19:09:44.719Z,97165.16
2022-12-31T19:12:13.407Z,97170.47
2022-12-31T19:14:40.004Z,97159.06
2022-12-31T19:19:31.760Z,97157.59
2022-12-31T19:21:58.210Z,97160.81
2022-12-31T19:24:27.336Z,97158.72
2022-12-31T19:26:54.837Z,97153.63
2022-12-31T19:29:27.611Z,97154.25
2022-12-31T19:31:54.503Z,97165.81
2022-12-31T19:34:21.118Z,97163.88
2022-12-31T19:36:47.605Z,97166.13
2022-12-31T19:39:19.675Z,97161.31
2022-12-31T19:41:51.419Z,97170.41
2022-12-31T19:44:22.874Z,97172.91
2022-12-31T19:46:49.450Z,97176.38
2022-12-31T19:49:16.510Z,97170.03
2022-12-31T19:51:43.226Z,97178.63
2022-12-31T19:54:12.944Z,97179.09
2022-12-31T19:56:39.424Z,97176.13
2022-12-31T19:59:07.577Z,97178.91
2022-12-31T20:01:34.375Z,97173.63
2022-12-31T20:04:01.008Z,97174.38
2022-12-31T20:06:27.522Z,97178.63
2022-12-31T20:08:53.960Z,97172.69
2022-12-31T20:11:22.310Z,97177.38
2022-12-31T20:13:49.944Z,97172.72
2022-12-31T20:16:18.444Z,97172.91
2022-12-31T20:18:46.693Z,97174.19
2022-12-31T20:21:20.009Z,97170.63
2022-12-31T20:23:48.182Z,97161.94
2022-12-31T20:26:14.687Z,97171.34
2022-12-31T20:28:41.379Z,97179.00
2022-12-31T20:31:09.373Z,97182.50
2022-12-31T20:33:36.338Z,97180.72
2022-12-31T20:36:04.911Z,97176.22
2022-12-31T20:38:31.550Z,97177.69
2022-12-31T20:41:11.817Z,97168.34
2022-12-31T20:43:38.797Z,97170.13
2022-12-31T20:46:14.396Z,97170.25
2022-12-31T20:48:41.879Z,97178.41
2022-12-31T20:51:08.434Z,97178.88
2022-12-31T20:53:34.982Z,97182.56
2022-12-31T20:56:05.634Z,97188.22
2022-12-31T20:58:32.239Z,97177.31
2022-12-31T21:01:00.172Z,97183.41
2022-12-31T21:04:02.929Z,97181.78
2022-12-31T21:06:14.377Z,97188.22
2022-12-31T21:08:41.409Z,97198.66
2022-12-31T21:11:27.020Z,97200.06
2022-12-31T21:13:54.929Z,97198.16
2022-12-31T21:16:21.389Z,97201.38
2022-12-31T21:18:47.888Z,97218.75
2022-12-31T21:21:14.496Z,97207.47
2022-12-31T21:23:41.039Z,97213.16
2022-12-31T21:26:07.700Z,97217.97
2022-12-31T21:28:34.492Z,97217.63
2022-12-31T21:31:03.727Z,97211.94
2022-12-31T21:33:30.773Z,97218.91
2022-12-31T21:36:02.632Z,97209.69
2022-12-31T21:38:30.945Z,97209.94
2022-12-31T21:41:02.750Z,97216.97
2022-12-31T21:43:29.169Z,97214.84
2022-12-31T21:46:07.120Z,97217.63
2022-12-31T21:48:34.748Z,97233.28
2022-12-31T21:51:15.137Z,97228.72
2022-12-31T21:53:41.517Z,97225.94
2022-12-31T21:56:09.903Z,97228.81
2022-12-31T21:58:39.038Z,97241.44
2022-12-31T22:01:25.093Z,97238.38
2022-12-31T22:03:51.777Z,97244.16
2022-12-31T22:06:21.232Z,97248.16
2022-12-31T22:08:53.445Z,97247.31
2022-12-31T22:11:22.546Z,97241.19
2022-12-31T22:13:49.809Z,97243.91
2022-12-31T22:16:17.256Z,97247.72
2022-12-31T22:18:44.223Z,97257.47
2022-12-31T22:21:19.981Z,97253.59
2022-12-31T22:23:49.166Z,97256.59
2022-12-31T22:26:17.752Z,97256.84
2022-12-31T22:28:45.846Z,97257.78
2022-12-31T22:31:21.686Z,97253.03
2022-12-31T22:33:48.302Z,97266.22
2022-12-31T22:36:20.121Z,97268.88
2022-12-31T22:38:47.324Z,97273.94
2022-12-31T22:41:19.697Z,97270.97
2022-12-31T22:43:49.364Z,97282.28
2022-12-31T22:46:18.462Z,97288.84
2022-12-31T22:48:45.394Z,97307.28
2022-12-31T22:51:12.758Z,97297.34
2022-12-31T22:53:41.090Z,97309.13
2022-12-31T22:56:08.481Z,97301.69
2022-12-31T22:58:34.966Z,97301.56
2022-12-31T23:01:06.088Z,97298.59
2022-12-31T23:03:32.800Z,97303.53
2022-12-31T23:05:59.785Z,97311.47
2022-12-31T23:08:26.446Z,97303.09
2022-12-31T23:11:00.313Z,97301.38
2022-12-31T23:13:50.855Z,97314.25
2022-12-31T23:16:36.952Z,97307.28
2022-12-31T23:19:22.312Z,97306.13
2022-12-31T23:22:07.273Z,97300.84
2022-12-31T23:24:33.832Z,97298.41
2022-12-31T23:27:00.464Z,97293.03
2022-12-31T23:29:26.951Z,97299.53
2022-12-31T23:31:53.661Z,97302.88
2022-12-31T23:34:20.270Z,97313.28
2022-12-31T23:36:46.748Z,97298.63
2022-12-31T23:39:13.530Z,97303.66
2022-12-31T23:41:40.500Z,97309.06
2022-12-31T23:44:07.531Z,97299.66
2022-12-31T23:46:34.066Z,97304.50
2022-12-31T23:49:00.549Z,97302.44
2022-12-31T23:51:27.136Z,97304.03
2022-12-31T23:53:53.637Z,97320.53
2022-12-31T23:56:23.987Z,97309.44
2022-12-31T23:58:55.269Z,97309.06
